createdAt,value
2018-06-16T00:04:20.399Z,11.33
2018-06-16T00:09:07.470Z,12.37
2018-06-16T00:13:51.878Z,12.37
2018-06-16T00:18:36.253Z,10.67
2018-06-16T00:23:20.728Z,11.53
2018-06-16T00:28:05.131Z,11.83
2018-06-16T00:32:49.476Z,10.27
2018-06-16T00:37:33.923Z,11.13
2018-06-16T00:42:18.472Z,9.93
2018-06-16T00:47:02.815Z,10.40
2018-06-16T00:51:47.349Z,10.70
2018-06-16T00:56:31.759Z,9.70
2018-06-16T01:01:16.243Z,10.67
2018-06-16T01:06:00.770Z,10.57
2018-06-16T01:10:45.143Z,10.53
2018-06-16T01:15:29.594Z,10.03
2018-06-16T01:20:13.942Z,11.30
2018-06-16T01:24:58.402Z,11.13
2018-06-16T01:29:43.028Z,11.60
2018-06-16T01:34:27.427Z,12.37
2018-06-16T01:39:12.822Z,10.50
2018-06-16T01:43:57.156Z,10.33
2018-06-16T01:48:41.628Z,12.07
2018-06-16T01:53:26.015Z,10.90
2018-06-16T01:58:10.438Z,12.93
2018-06-16T02:02:55.121Z,11.13
2018-06-16T02:07:39.787Z,13.20
2018-06-16T02:12:24.271Z,12.30
2018-06-16T02:17:08.631Z,11.77
2018-06-16T02:21:53.015Z,11.97
2018-06-16T02:26:37.520Z,12.80
2018-06-16T02:31:21.955Z,12.43
2018-06-16T02:36:06.997Z,14.57
2018-06-16T02:40:51.661Z,11.70
2018-06-16T02:45:36.042Z,11.97
2018-06-16T02:50:20.696Z,10.37
2018-06-16T02:55:05.456Z,10.97
2018-06-16T02:59:49.865Z,12.10
2018-06-16T03:04:34.238Z,11.57
2018-06-16T03:09:18.696Z,11.83
2018-06-16T03:14:03.377Z,11.23
2018-06-16T03:18:47.782Z,13.20
2018-06-16T03:23:32.792Z,12.83
2018-06-16T03:28:17.155Z,13.50
2018-06-16T03:33:01.499Z,10.97
2018-06-16T03:37:45.830Z,11.80
2018-06-16T03:42:30.379Z,10.50
2018-06-16T03:47:14.799Z,11.07
2018-06-16T03:51:59.142Z,10.47
2018-06-16T03:56:43.536Z,10.83
2018-06-16T04:01:28.263Z,11.03
2018-06-16T04:06:12.865Z,9.67
2018-06-16T04:10:57.395Z,8.97
2018-06-16T04:15:41.894Z,10.37
2018-06-16T04:20:26.296Z,10.70
2018-06-16T04:25:10.629Z,10.37
2018-06-16T04:29:54.991Z,8.87
2018-06-16T04:34:39.461Z,10.00
2018-06-16T04:39:23.966Z,9.80
2018-06-16T04:44:08.374Z,12.17
2018-06-16T04:48:52.996Z,12.80
2018-06-16T04:53:37.721Z,15.70
2018-06-16T04:58:22.190Z,13.93
2018-06-16T05:03:07.019Z,17.70
2018-06-16T05:07:51.421Z,16.30
2018-06-16T05:12:35.795Z,25.83
2018-06-16T05:17:20.210Z,29.93
2018-06-16T05:22:04.787Z,16.63
2018-06-16T05:26:49.233Z,17.63
2018-06-16T05:31:33.856Z,16.40
2018-06-16T05:36:18.619Z,15.80
2018-06-16T05:41:03.055Z,14.43
2018-06-16T05:45:47.564Z,15.37
2018-06-16T05:50:32.002Z,13.60
2018-06-16T05:55:22.901Z,14.07
2018-06-16T06:00:07.512Z,15.77
2018-06-16T06:04:52.692Z,14.97
2018-06-16T06:09:37.160Z,14.27
2018-06-16T06:14:21.721Z,15.30
2018-06-16T06:19:06.260Z,14.10
2018-06-16T06:23:50.731Z,13.97
2018-06-16T06:28:35.116Z,13.57
2018-06-16T06:33:19.819Z,13.70
2018-06-16T06:38:04.444Z,12.67
2018-06-16T06:42:49.298Z,13.33
2018-06-16T06:47:38.450Z,12.43
2018-06-16T06:52:39.338Z,12.40
2018-06-16T06:57:26.300Z,11.47
2018-06-16T07:02:14.789Z,10.93
2018-06-16T07:07:00.820Z,10.90
2018-06-16T07:11:51.568Z,10.83
2018-06-16T07:16:36.179Z,10.37
2018-06-16T07:21:20.602Z,9.50
2018-06-16T07:26:05.268Z,8.93
2018-06-16T07:30:49.687Z,9.13
2018-06-16T07:35:34.119Z,8.57
2018-06-16T07:40:18.574Z,9.17
2018-06-16T07:45:02.883Z,8.23
2018-06-16T07:49:47.262Z,8.63
2018-06-16T07:54:31.655Z,8.97
2018-06-16T07:59:17.307Z,7.13
2018-06-16T08:04:01.708Z,8.03
2018-06-16T08:08:46.255Z,8.10
2018-06-16T08:13:30.735Z,9.57
2018-06-16T08:18:15.172Z,8.10
2018-06-16T08:22:59.522Z,7.87
2018-06-16T08:27:44.121Z,8.35
2018-06-16T08:32:28.650Z,6.40
2018-06-16T08:37:13.080Z,7.80
2018-06-16T08:41:57.505Z,7.47
2018-06-16T08:46:41.903Z,8.10
2018-06-16T08:51:26.366Z,7.60
2018-06-16T08:56:10.794Z,6.65
2018-06-16T09:00:55.170Z,6.97
2018-06-16T09:05:40.570Z,8.08
2018-06-16T09:10:25.056Z,8.20
2018-06-16T09:15:09.499Z,7.85
2018-06-16T09:19:54.193Z,7.22
2018-06-16T09:24:38.606Z,5.20
2018-06-16T09:29:23.062Z,6.12
2018-06-16T09:34:08.366Z,6.33
2018-06-16T09:38:52.886Z,6.50
2018-06-16T09:43:38.352Z,5.92
2018-06-16T09:48:22.744Z,6.03
2018-06-16T09:53:07.364Z,4.87
2018-06-16T09:57:51.784Z,4.72
2018-06-16T10:02:36.320Z,5.87
2018-06-16T10:07:20.850Z,4.75
2018-06-16T10:12:05.401Z,5.58
2018-06-16T10:16:49.950Z,4.58
2018-06-16T10:21:34.452Z,5.33
2018-06-16T10:26:18.994Z,5.08
2018-06-16T10:31:03.436Z,6.08
2018-06-16T10:35:47.863Z,5.35
2018-06-16T10:40:32.262Z,4.75
2018-06-16T10:45:16.720Z,6.97
2018-06-16T10:50:01.114Z,6.75
2018-06-16T10:54:45.586Z,7.50
2018-06-16T10:59:30.166Z,4.60
2018-06-16T11:04:14.839Z,5.08
2018-06-16T11:08:59.170Z,4.83
2018-06-16T11:13:43.780Z,4.50
2018-06-16T11:18:28.335Z,4.62
2018-06-16T11:23:13.044Z,4.90
2018-06-16T11:27:58.618Z,3.87
2018-06-16T11:32:43.194Z,4.75
2018-06-16T11:37:27.799Z,4.58
2018-06-16T11:42:12.269Z,6.15
2018-06-16T11:46:56.713Z,4.75
2018-06-16T11:51:41.376Z,3.90
2018-06-16T11:56:25.781Z,4.23
2018-06-16T12:01:11.178Z,5.40
2018-06-16T12:05:55.984Z,5.00
2018-06-16T12:10:40.563Z,4.80
2018-06-16T12:15:25.841Z,5.80
2018-06-16T12:20:10.331Z,5.27
2018-06-16T12:24:54.753Z,4.60
2018-06-16T12:29:40.945Z,4.20
2018-06-16T12:34:25.308Z,5.03
2018-06-16T12:39:10.835Z,4.85
2018-06-16T12:43:55.452Z,4.13
2018-06-16T12:48:39.830Z,5.60
2018-06-16T12:53:24.804Z,5.07
2018-06-16T12:58:09.122Z,4.70
2018-06-16T13:02:53.705Z,3.70
2018-06-16T13:07:38.432Z,3.75
2018-06-16T13:12:23.053Z,3.67
2018-06-16T13:17:07.722Z,4.75
2018-06-16T13:21:52.270Z,3.25
2018-06-16T13:26:36.868Z,5.10
2018-06-16T13:31:21.531Z,3.92
2018-06-16T13:36:05.939Z,3.17
2018-06-16T13:40:50.645Z,3.70
2018-06-16T13:45:35.189Z,3.20
2018-06-16T13:50:19.544Z,5.20
2018-06-16T13:55:03.926Z,3.87
2018-06-16T13:59:48.370Z,4.08
2018-06-16T14:04:32.872Z,6.55
2018-06-16T14:09:17.276Z,4.45
2018-06-16T14:14:01.722Z,4.67
2018-06-16T14:18:46.339Z,5.05
2018-06-16T14:23:30.970Z,7.42
2018-06-16T14:28:15.291Z,4.10
2018-06-16T14:32:59.698Z,5.67
2018-06-16T14:37:44.199Z,4.28
2018-06-16T14:42:28.539Z,4.50
2018-06-16T14:47:12.904Z,4.03
2018-06-16T14:51:57.330Z,4.90
2018-06-16T14:56:41.704Z,4.62
2018-06-16T15:01:26.122Z,4.78
2018-06-16T15:06:10.533Z,4.25
2018-06-16T15:10:55.386Z,4.10
2018-06-16T15:15:40.046Z,3.90
2018-06-16T15:20:24.410Z,3.42
2018-06-16T15:25:08.772Z,4.17
2018-06-16T15:29:53.242Z,4.92
2018-06-16T15:34:37.723Z,4.60
2018-06-16T15:39:22.129Z,4.45
2018-06-16T15:44:06.699Z,3.90
2018-06-16T15:48:51.028Z,4.37
2018-06-16T15:53:35.588Z,4.28
2018-06-16T15:58:20.046Z,3.72
2018-06-16T16:03:04.385Z,3.95
2018-06-16T16:07:49.674Z,4.20
2018-06-16T16:12:34.249Z,3.90
2018-06-16T16:17:18.702Z,4.45
2018-06-16T16:22:03.250Z,3.90
2018-06-16T16:26:47.662Z,4.70
2018-06-16T16:31:32.144Z,4.33
2018-06-16T16:36:16.599Z,5.45
2018-06-16T16:41:01.118Z,3.83
2018-06-16T16:45:45.656Z,4.43
2018-06-16T16:50:30.149Z,5.22
2018-06-16T16:55:14.510Z,5.30
2018-06-16T16:59:58.939Z,3.98
2018-06-16T17:04:43.365Z,4.37
2018-06-16T17:09:28.535Z,4.67
2018-06-16T17:14:13.028Z,5.20
2018-06-16T17:18:57.626Z,4.93
2018-06-16T17:23:42.004Z,7.30
2018-06-16T17:28:26.359Z,6.20
2018-06-16T17:33:10.754Z,4.77
2018-06-16T17:37:55.238Z,4.80
2018-06-16T17:42:39.690Z,5.37
2018-06-16T17:47:24.391Z,4.53
2018-06-16T17:52:08.849Z,4.40
2018-06-16T17:56:53.263Z,4.97
2018-06-16T18:01:37.735Z,5.77
2018-06-16T18:06:22.116Z,8.30
2018-06-16T18:11:06.680Z,7.70
2018-06-16T18:15:51.182Z,6.03
2018-06-16T18:20:35.363Z,5.33
2018-06-16T18:25:20.275Z,5.90
2018-06-16T18:30:04.787Z,5.80
2018-06-16T18:34:49.342Z,6.53
2018-06-16T18:39:33.735Z,5.60
2018-06-16T18:44:18.236Z,7.80
2018-06-16T18:49:02.883Z,7.03
2018-06-16T18:53:47.395Z,7.13
2018-06-16T18:58:31.818Z,6.80
2018-06-16T19:03:16.225Z,7.00
2018-06-16T19:08:00.758Z,9.20
2018-06-16T19:12:46.202Z,7.33
2018-06-16T19:17:30.689Z,6.53
2018-06-16T19:22:15.264Z,6.30
2018-06-16T19:26:59.816Z,7.03
2018-06-16T19:31:44.410Z,7.70
2018-06-16T19:36:29.022Z,8.07
2018-06-16T19:41:13.585Z,8.93
2018-06-16T19:45:58.089Z,7.97
2018-06-16T19:50:42.726Z,7.77
2018-06-16T19:55:27.617Z,9.37
2018-06-16T20:00:12.193Z,9.20
2018-06-16T20:04:57.039Z,8.30
2018-06-16T20:09:41.659Z,9.53
2018-06-16T20:14:26.119Z,9.33
2018-06-16T20:19:10.735Z,9.67
2018-06-16T20:23:55.268Z,8.73
2018-06-16T20:28:39.699Z,10.40
2018-06-16T20:33:24.156Z,8.77
2018-06-16T20:38:08.576Z,11.43
2018-06-16T20:42:53.072Z,9.17
2018-06-16T20:47:37.881Z,9.73
2018-06-16T20:52:22.585Z,9.17
2018-06-16T20:57:06.788Z,8.43
2018-06-16T21:01:51.067Z,9.23
2018-06-16T21:06:35.494Z,9.40
2018-06-16T21:11:20.046Z,8.80
2018-06-16T21:16:04.474Z,8.87
2018-06-16T21:20:48.866Z,9.47
2018-06-16T21:25:33.402Z,9.93
2018-06-16T21:30:17.847Z,9.47
2018-06-16T21:35:02.430Z,10.07
2018-06-16T21:39:46.762Z,9.53
2018-06-16T21:44:31.222Z,10.73
2018-06-16T21:49:15.646Z,9.50
2018-06-16T21:54:00.111Z,8.93
2018-06-16T21:58:44.654Z,9.80
2018-06-16T22:03:29.137Z,8.90
2018-06-16T22:08:18.650Z,8.73
2018-06-16T22:13:03.069Z,10.03
2018-06-16T22:17:47.919Z,9.10
2018-06-16T22:22:32.321Z,8.70
2018-06-16T22:27:16.815Z,9.07
2018-06-16T22:32:01.222Z,9.20
2018-06-16T22:36:45.594Z,8.17
2018-06-16T22:41:29.967Z,8.33
2018-06-16T22:46:14.506Z,7.63
2018-06-16T22:50:58.494Z,7.97
2018-06-16T22:55:42.807Z,7.67
2018-06-16T23:00:28.890Z,6.93
2018-06-16T23:05:13.355Z,7.73
2018-06-16T23:09:57.884Z,8.23
2018-06-16T23:14:43.118Z,7.67
2018-06-16T23:19:27.458Z,7.00
2018-06-16T23:24:12.880Z,7.40
2018-06-16T23:28:57.588Z,7.80
2018-06-16T23:33:42.015Z,7.50
2018-06-16T23:38:26.887Z,7.33
2018-06-16T23:43:11.198Z,8.03
2018-06-16T23:47:55.716Z,8.77
2018-06-16T23:52:40.121Z,7.90
2018-06-16T23:57:24.548Z,8.30
